Time,TemperatureF,DewpointF,PressureIn,WindDirection,WindDirectionDegrees,WindSpeedMPH,WindSpeedGustMPH,Humidity,HourlyPrecipIn,Conditions,Clouds,dailyrainin,SoftwareType,DateUTC
2013-01-10 00:00:00,49.1,41.5,0.00,North,0,0.0,0.0,75,0.00,,,0.00,WUHU21623XXSP,2013-01-10 05:00:00,
2013-01-10 00:01:00,49.1,41.5,0.00,North,0,0.0,0.0,75,0.00,,,0.00,WUHU21623XXSP,2013-01-10 05:01:00,
2013-01-10 00:06:00,48.9,41.3,0.00,North,0,0.0,0.0,75,0.00,,,0.00,WUHU21623XXSP,2013-01-10 05:06:00,
2013-01-10 00:11:00,48.9,41.3,0.00,North,0,0.0,0.0,75,0.00,,,0.00,WUHU21623XXSP,2013-01-10 05:11:00,
2013-01-10 00:16:00,48.7,40.7,0.00,North,0,0.0,0.0,74,0.00,,,0.00,WUHU21623XXSP,2013-01-10 05:16:00,
2013-01-10 00:21:00,48.7,40.7,0.00,North,0,0.0,0.0,74,0.00,,,0.00,WUHU21623XXSP,2013-01-10 05:21:00,
2013-01-10 00:26:00,48.6,40.6,0.00,North,0,0.0,0.0,74,0.00,,,0.00,WUHU21623XXSP,2013-01-10 05:26:00,
2013-01-10 00:31:00,48.4,40.4,0.00,North,0,0.0,0.0,74,0.00,,,0.00,WUHU21623XXSP,2013-01-10 05:31:00,
2013-01-10 00:36:00,48.4,40.4,0.00,North,0,0.0,0.0,74,0.00,,,0.00,WUHU21623XXSP,2013-01-10 05:36:00,
2013-01-10 00:41:00,48.0,40.0,0.00,North,0,0.0,0.0,74,0.00,,,0.00,WUHU21623XXSP,2013-01-10 05:41:00,
2013-01-10 00:46:00,47.7,39.7,0.00,North,0,0.0,0.0,74,0.00,,,0.00,WUHU21623XXSP,2013-01-10 05:46:00,
2013-01-10 00:51:00,47.3,39.4,0.00,North,0,0.0,0.0,74,0.00,,,0.00,WUHU21623XXSP,2013-01-10 05:51:00,
2013-01-10 00:56:00,47.1,39.6,0.00,North,0,0.0,0.0,75,0.00,,,0.00,WUHU21623XXSP,2013-01-10 05:56:00,
2013-01-10 01:01:00,47.1,39.6,0.00,North,0,0.0,0.0,75,0.00,,,0.00,WUHU21623XXSP,2013-01-10 06:01:00,
2013-01-10 01:06:00,47.1,39.6,0.00,North,0,0.0,0.0,75,0.00,,,0.00,WUHU21623XXSP,2013-01-10 06:06:00,
2013-01-10 01:11:00,46.9,39.4,0.00,North,0,0.0,0.0,75,0.00,,,0.00,WUHU21623XXSP,2013-01-10 06:11:00,
2013-01-10 01:16:00,46.9,39.4,0.00,North,0,0.0,0.0,75,0.00,,,0.00,WUHU21623XXSP,2013-01-10 06:16:00,
2013-01-10 01:21:00,46.8,39.3,0.00,North,0,0.0,0.0,75,0.00,,,0.00,WUHU21623XXSP,2013-01-10 06:21:00,
2013-01-10 01:26:00,46.6,39.1,0.00,North,0,0.0,0.0,75,0.00,,,0.00,WUHU21623XXSP,2013-01-10 06:26:00,
2013-01-10 01:31:00,46.2,38.4,0.00,North,0,0.0,0.0,74,0.00,,,0.00,WUHU21623XXSP,2013-01-10 06:31:00,
2013-01-10 01:36:00,46.0,38.2,0.00,North,0,0.0,0.0,74,0.00,,,0.00,WUHU21623XXSP,2013-01-10 06:36:00,
2013-01-10 01:41:00,46.0,38.2,0.00,North,0,0.0,0.0,74,0.00,,,0.00,WUHU21623XXSP,2013-01-10 06:41:00,
2013-01-10 01:46:00,45.5,37.7,0.00,North,0,0.0,0.0,74,0.00,,,0.00,WUHU21623XXSP,2013-01-10 06:46:00,
2013-01-10 01:51:00,45.3,37.5,0.00,North,0,0.0,0.0,74,0.00,,,0.00,WUHU21623XXSP,2013-01-10 06:51:00,
2013-01-10 01:56:00,45.0,37.1,0.00,North,0,0.0,0.0,74,0.00,,,0.00,WUHU21623XXSP,2013-01-10 06:56:00,
2013-01-10 02:01:00,44.8,37.0,0.00,North,0,0.0,0.0,74,0.00,,,0.00,WUHU21623XXSP,2013-01-10 07:01:00,
2013-01-10 02:06:00,44.4,36.6,0.00,North,0,0.0,0.0,74,0.00,,,0.00,WUHU21623XXSP,2013-01-10 07:06:00,
2013-01-10 02:11:00,44.1,36.4,0.00,North,0,0.0,0.0,74,0.00,,,0.00,WUHU21623XXSP,2013-01-10 07:11:00,
2013-01-10 02:16:00,43.9,35.8,0.00,North,0,0.0,0.0,73,0.00,,,0.00,WUHU21623XXSP,2013-01-10 07:16:00,
2013-01-10 02:21:00,43.9,35.4,0.00,North,0,0.0,0.0,72,0.00,,,0.00,WUHU21623XXSP,2013-01-10 07:21:00,
2013-01-10 02:26:00,43.7,35.3,0.00,North,0,0.0,0.0,72,0.00,,,0.00,WUHU21623XXSP,2013-01-10 07:26:00,
2013-01-10 02:31:00,43.7,34.9,0.00,North,0,0.0,0.0,71,0.00,,,0.00,WUHU21623XXSP,2013-01-10 07:31:00,
2013-01-10 02:36:00,43.5,34.4,0.00,North,0,0.0,0.0,70,0.00,,,0.00,WUHU21623XXSP,2013-01-10 07:36:00,
2013-01-10 02:41:00,43.3,34.3,0.00,North,0,0.0,0.0,70,0.00,,,0.00,WUHU21623XXSP,2013-01-10 07:41:00,
2013-01-10 02:46:00,43.2,34.1,0.00,North,0,0.0,0.0,70,0.00,,,0.00,WUHU21623XXSP,2013-01-10 07:46:00,
2013-01-10 02:51:00,43.0,34.0,0.00,North,0,0.0,0.0,70,0.00,,,0.00,WUHU21623XXSP,2013-01-10 07:51:00,
2013-01-10 02:56:00,42.6,33.6,0.00,North,0,0.0,0.0,70,0.00,,,0.00,WUHU21623XXSP,2013-01-10 07:56:00,
2013-01-10 03:01:00,42.4,33.4,0.00,North,0,0.0,0.0,70,0.00,,,0.00,WUHU21623XXSP,2013-01-10 08:01:00,
2013-01-10 03:06:00,42.1,33.1,0.00,North,0,0.0,0.0,70,0.00,,,0.00,WUHU21623XXSP,2013-01-10 08:06:00,
2013-01-10 03:11:00,41.9,32.9,0.00,North,0,0.0,0.0,70,0.00,,,0.00,WUHU21623XXSP,2013-01-10 08:11:00,
2013-01-10 03:16:00,41.5,32.5,0.00,North,0,0.0,0.0,70,0.00,,,0.00,WUHU21623XXSP,2013-01-10 08:16:00,
2013-01-10 03:24:00,41.5,32.2,0.00,North,0,0.0,0.0,69,0.00,,,0.00,WUHU21623XXSP,2013-01-10 08:24:00,
2013-01-10 03:29:00,41.7,31.9,0.00,North,0,0.0,0.0,68,0.00,,,0.00,WUHU21623XXSP,2013-01-10 08:29:00,
2013-01-10 03:34:00,41.7,31.9,0.00,North,0,0.0,0.0,68,0.00,,,0.00,WUHU21623XXSP,2013-01-10 08:34:00,
2013-01-10 03:39:00,41.5,31.8,0.00,North,0,0.0,0.0,68,0.00,,,0.00,WUHU21623XXSP,2013-01-10 08:39:00,
2013-01-10 03:44:00,41.2,31.4,0.00,North,0,0.0,0.0,68,0.00,,,0.00,WUHU21623XXSP,2013-01-10 08:44:00,
2013-01-10 03:49:00,41.2,31.4,0.00,North,0,0.0,0.0,68,0.00,,,0.00,WUHU21623XXSP,2013-01-10 08:49:00,
2013-01-10 03:54:00,40.8,31.1,0.00,North,0,0.0,0.0,68,0.00,,,0.00,WUHU21623XXSP,2013-01-10 08:54:00,
2013-01-10 03:59:00,40.6,30.9,0.00,North,0,0.0,0.0,68,0.00,,,0.00,WUHU21623XXSP,2013-01-10 08:59:00,
2013-01-10 04:04:00,40.5,31.1,0.00,North,0,0.0,0.0,69,0.00,,,0.00,WUHU21623XXSP,2013-01-10 09:04:00,
2013-01-10 04:09:00,40.3,30.9,0.00,North,0,0.0,0.0,69,0.00,,,0.00,WUHU21623XXSP,2013-01-10 09:09:00,
2013-01-10 04:14:00,40.3,30.9,0.00,North,0,0.0,0.0,69,0.00,,,0.00,WUHU21623XXSP,2013-01-10 09:14:00,
2013-01-10 04:19:00,40.3,30.9,0.00,North,0,0.0,0.0,69,0.00,,,0.00,WUHU21623XXSP,2013-01-10 09:19:00,
2013-01-10 04:24:00,40.1,30.7,0.00,North,0,0.0,0.0,69,0.00,,,0.00,WUHU21623XXSP,2013-01-10 09:24:00,
2013-01-10 04:29:00,39.9,30.5,0.00,North,0,0.0,0.0,69,0.00,,,0.00,WUHU21623XXSP,2013-01-10 09:29:00,
2013-01-10 04:34:00,39.9,30.5,0.00,North,0,0.0,0.0,69,0.00,,,0.00,WUHU21623XXSP,2013-01-10 09:34:00,
2013-01-10 04:39:00,39.6,30.2,0.00,North,0,0.0,0.0,69,0.00,,,0.00,WUHU21623XXSP,2013-01-10 09:39:00,
2013-01-10 04:44:00,39.4,30.0,0.00,North,0,0.0,0.0,69,0.00,,,0.00,WUHU21623XXSP,2013-01-10 09:44:00,
2013-01-10 04:49:00,39.0,29.7,0.00,North,0,0.0,0.0,69,0.00,,,0.00,WUHU21623XXSP,2013-01-10 09:49:00,
2013-01-10 04:54:00,39.0,29.7,0.00,North,0,0.0,0.0,69,0.00,,,0.00,WUHU21623XXSP,2013-01-10 09:54:00,
2013-01-10 04:59:00,38.8,29.5,0.00,North,0,0.0,0.0,69,0.00,,,0.00,WUHU21623XXSP,2013-01-10 09:59:00,
2013-01-10 05:04:00,38.7,29.3,0.00,North,0,0.0,0.0,69,0.00,,,0.00,WUHU21623XXSP,2013-01-10 10:04:00,
2013-01-10 05:09:00,38.5,29.2,0.00,North,0,0.0,0.0,69,0.00,,,0.00,WUHU21623XXSP,2013-01-10 10:09:00,
2013-01-10 05:14:00,38.3,29.0,0.00,North,0,0.0,0.0,69,0.00,,,0.00,WUHU21623XXSP,2013-01-10 10:14:00,
2013-01-10 05:19:00,38.1,28.9,0.00,North,0,0.0,0.0,69,0.00,,,0.00,WUHU21623XXSP,2013-01-10 10:19:00,
2013-01-10 05:24:00,37.9,28.7,0.00,North,0,0.0,0.0,69,0.00,,,0.00,WUHU21623XXSP,2013-01-10 10:24:00,
2013-01-10 05:29:00,37.9,28.7,0.00,North,0,0.0,0.0,69,0.00,,,0.00,WUHU21623XXSP,2013-01-10 10:29:00,
2013-01-10 05:34:00,37.9,29.1,0.00,North,0,0.0,0.0,70,0.00,,,0.00,WUHU21623XXSP,2013-01-10 10:34:00,
2013-01-10 05:39:00,37.6,28.7,0.00,North,0,0.0,0.0,70,0.00,,,0.00,WUHU21623XXSP,2013-01-10 10:39:00,
2013-01-10 05:44:00,37.4,28.6,0.00,North,0,0.0,0.0,70,0.00,,,0.00,WUHU21623XXSP,2013-01-10 10:44:00,
2013-01-10 05:49:00,37.2,28.4,0.00,North,0,0.0,0.0,70,0.00,,,0.00,WUHU21623XXSP,2013-01-10 10:49:00,
2013-01-10 05:54:00,37.0,28.2,0.00,North,0,0.0,0.0,70,0.00,,,0.00,WUHU21623XXSP,2013-01-10 10:54:00,
2013-01-10 05:59:00,37.0,28.2,0.00,North,0,0.0,0.0,70,0.00,,,0.00,WUHU21623XXSP,2013-01-10 10:59:00,
2013-01-10 06:04:00,36.7,27.9,0.00,North,0,0.0,0.0,70,0.00,,,0.00,WUHU21623XXSP,2013-01-10 11:04:00,
2013-01-10 06:09:00,36.3,27.5,0.00,North,0,0.0,0.0,70,0.00,,,0.00,WUHU21623XXSP,2013-01-10 11:09:00,
2013-01-10 06:14:00,36.3,27.5,0.00,North,0,0.0,0.0,70,0.00,,,0.00,WUHU21623XXSP,2013-01-10 11:14:00,
2013-01-10 06:19:00,36.1,27.3,0.00,North,0,0.0,0.0,70,0.00,,,0.00,WUHU21623XXSP,2013-01-10 11:19:00,
2013-01-10 06:24:00,35.8,27.3,0.00,North,0,0.0,0.0,71,0.00,,,0.00,WUHU21623XXSP,2013-01-10 11:24:00,
2013-01-10 06:29:00,35.4,26.9,0.00,North,0,0.0,0.0,71,0.00,,,0.00,WUHU21623XXSP,2013-01-10 11:29:00,
2013-01-10 06:34:00,35.4,26.9,0.00,North,0,0.0,0.0,71,0.00,,,0.00,WUHU21623XXSP,2013-01-10 11:34:00,
2013-01-10 06:39:00,35.2,26.7,0.00,North,0,0.0,0.0,71,0.00,,,0.00,WUHU21623XXSP,2013-01-10 11:39:00,
2013-01-10 06:44:00,34.9,26.4,0.00,North,0,0.0,0.0,71,0.00,,,0.00,WUHU21623XXSP,2013-01-10 11:44:00,
2013-01-10 06:49:00,34.9,26.4,0.00,North,0,0.0,0.0,71,0.00,,,0.00,WUHU21623XXSP,2013-01-10 11:49:00,
2013-01-10 06:54:00,34.7,26.5,0.00,North,0,0.0,0.0,72,0.00,,,0.00,WUHU21623XXSP,2013-01-10 11:54:00,
2013-01-10 06:59:00,34.7,26.5,0.00,North,0,0.0,0.0,72,0.00,,,0.00,WUHU21623XXSP,2013-01-10 11:59:00,
2013-01-10 07:04:00,34.5,26.3,0.00,North,0,0.0,0.0,72,0.00,,,0.00,WUHU21623XXSP,2013-01-10 12:04:00,
2013-01-10 07:09:00,34.3,26.2,0.00,North,0,0.0,0.0,72,0.00,,,0.00,WUHU21623XXSP,2013-01-10 12:09:00,
2013-01-10 07:14:00,34.3,26.2,0.00,North,0,0.0,0.0,72,0.00,,,0.00,WUHU21623XXSP,2013-01-10 12:14:00,
2013-01-10 07:19:00,34.3,26.2,0.00,North,0,0.0,0.0,72,0.00,,,0.00,WUHU21623XXSP,2013-01-10 12:19:00,
2013-01-10 07:24:00,34.3,26.5,0.00,North,0,0.0,0.0,73,0.00,,,0.00,WUHU21623XXSP,2013-01-10 12:24:00,
2013-01-10 07:29:00,34.3,26.5,0.00,North,0,0.0,0.0,73,0.00,,,0.00,WUHU21623XXSP,2013-01-10 12:29:00,
2013-01-10 07:34:00,34.3,26.5,0.00,North,0,0.0,0.0,73,0.00,,,0.00,WUHU21623XXSP,2013-01-10 12:34:00,
2013-01-10 07:39:00,34.3,26.5,0.00,North,0,0.0,0.0,73,0.00,,,0.00,WUHU21623XXSP,2013-01-10 12:39:00,
2013-01-10 07:44:00,34.3,26.5,0.00,North,0,0.0,0.0,73,0.00,,,0.00,WUHU21623XXSP,2013-01-10 12:44:00,
2013-01-10 07:49:00,34.3,26.5,0.00,North,0,0.0,0.0,73,0.00,,,0.00,WUHU21623XXSP,2013-01-10 12:49:00,
2013-01-10 07:54:00,34.5,26.7,0.00,North,0,0.0,0.0,73,0.00,,,0.00,WUHU21623XXSP,2013-01-10 12:54:00,
2013-01-10 07:59:00,34.3,26.5,0.00,North,0,0.0,0.0,73,0.00,,,0.00,WUHU21623XXSP,2013-01-10 12:59:00,
2013-01-10 08:04:00,34.5,26.7,0.00,North,0,0.0,0.0,73,0.00,,,0.00,WUHU21623XXSP,2013-01-10 13:04:00,
2013-01-10 08:09:00,34.7,27.2,0.00,North,0,0.0,0.0,74,0.00,,,0.00,WUHU21623XXSP,2013-01-10 13:09:00,
2013-01-10 08:14:00,34.7,27.2,0.00,North,0,0.0,0.0,74,0.00,,,0.00,WUHU21623XXSP,2013-01-10 13:14:00,
2013-01-10 08:19:00,34.9,27.4,0.00,North,0,0.0,0.0,74,0.00,,,0.00,WUHU21623XXSP,2013-01-10 13:19:00,
2013-01-10 08:24:00,35.2,27.7,0.00,North,0,0.0,0.0,74,0.00,,,0.00,WUHU21623XXSP,2013-01-10 13:24:00,
2013-01-10 08:29:00,35.2,27.7,0.00,North,0,0.0,0.0,74,0.00,,,0.00,WUHU21623XXSP,2013-01-10 13:29:00,
2013-01-10 08:34:00,35.4,28.2,0.00,North,0,0.0,0.0,75,0.00,,,0.00,WUHU21623XXSP,2013-01-10 13:34:00,
2013-01-10 08:39:00,35.6,28.4,0.00,North,0,0.0,0.0,75,0.00,,,0.00,WUHU21623XXSP,2013-01-10 13:39:00,
2013-01-10 08:44:00,35.8,28.6,0.00,North,0,0.0,0.0,75,0.00,,,0.00,WUHU21623XXSP,2013-01-10 13:44:00,
2013-01-10 08:49:00,36.0,28.8,0.00,North,0,0.0,0.0,75,0.00,,,0.00,WUHU21623XXSP,2013-01-10 13:49:00,
2013-01-10 08:54:00,36.1,28.9,0.00,North,0,0.0,0.0,75,0.00,,,0.00,WUHU21623XXSP,2013-01-10 13:54:00,
2013-01-10 08:59:00,36.3,29.4,0.00,North,0,0.0,0.0,76,0.00,,,0.00,WUHU21623XXSP,2013-01-10 13:59:00,
2013-01-10 09:04:00,36.5,29.6,0.00,North,0,0.0,0.0,76,0.00,,,0.00,WUHU21623XXSP,2013-01-10 14:04:00,
2013-01-10 09:09:00,36.9,30.0,0.00,North,0,0.0,0.0,76,0.00,,,0.00,WUHU21623XXSP,2013-01-10 14:09:00,
2013-01-10 09:14:00,37.2,30.3,0.00,North,0,0.0,0.0,76,0.00,,,0.00,WUHU21623XXSP,2013-01-10 14:14:00,
2013-01-10 09:19:00,37.8,31.2,0.00,North,0,0.0,0.0,77,0.00,,,0.00,WUHU21623XXSP,2013-01-10 14:19:00,
2013-01-10 09:24:00,38.3,31.7,0.00,North,0,0.0,0.0,77,0.00,,,0.00,WUHU21623XXSP,2013-01-10 14:24:00,
2013-01-10 09:29:00,39.0,32.4,0.00,North,0,0.0,0.0,77,0.00,,,0.00,WUHU21623XXSP,2013-01-10 14:29:00,
2013-01-10 09:34:00,39.4,32.8,0.00,North,0,0.0,0.0,77,0.00,,,0.00,WUHU21623XXSP,2013-01-10 14:34:00,
2013-01-10 09:39:00,40.6,33.9,0.00,North,0,0.0,0.0,77,0.00,,,0.00,WUHU21623XXSP,2013-01-10 14:39:00,
2013-01-10 09:44:00,41.2,34.1,0.00,North,0,0.0,0.0,77,0.00,,,0.00,WUHU21623XXSP,2013-01-10 14:44:00,
2013-01-10 09:49:00,41.7,34.7,0.00,North,0,0.0,0.0,76,0.00,,,0.00,WUHU21623XXSP,2013-01-10 14:49:00,
2013-01-10 09:54:00,42.6,34.9,0.00,North,0,0.0,0.0,74,0.00,,,0.00,WUHU21623XXSP,2013-01-10 14:54:00,
2013-01-10 09:59:00,43.3,35.3,0.00,North,0,0.0,0.0,73,0.00,,,0.00,WUHU21623XXSP,2013-01-10 14:59:00,
2013-01-10 10:04:00,43.9,35.1,0.00,North,0,0.0,0.0,71,0.00,,,0.00,WUHU21623XXSP,2013-01-10 15:04:00,
2013-01-10 10:09:00,44.8,34.9,0.00,North,0,0.0,0.0,69,0.00,,,0.00,WUHU21623XXSP,2013-01-10 15:09:00,
2013-01-10 10:14:00,45.3,35.4,0.00,North,0,0.0,0.0,68,0.00,,,0.00,WUHU21623XXSP,2013-01-10 15:14:00,
2013-01-10 10:19:00,46.2,35.3,0.00,North,0,0.0,0.0,67,0.00,,,0.00,WUHU21623XXSP,2013-01-10 15:19:00,
2013-01-10 10:24:00,47.5,35.9,0.00,North,0,0.0,0.0,64,0.00,,,0.00,WUHU21623XXSP,2013-01-10 15:24:00,
2013-01-10 10:29:00,48.4,36.7,0.00,North,0,0.0,0.0,64,0.00,,,0.00,WUHU21623XXSP,2013-01-10 15:29:00,
2013-01-10 10:34:00,48.9,36.5,0.00,North,0,0.0,0.0,62,0.00,,,0.00,WUHU21623XXSP,2013-01-10 15:34:00,
2013-01-10 10:39:00,49.3,36.4,0.00,North,0,0.0,0.0,61,0.00,,,0.00,WUHU21623XXSP,2013-01-10 15:39:00,
2013-01-10 10:44:00,49.3,36.4,0.00,North,0,0.0,0.0,61,0.00,,,0.00,WUHU21623XXSP,2013-01-10 15:44:00,
2013-01-10 10:49:00,49.3,36.0,0.00,North,0,0.0,0.0,60,0.00,,,0.00,WUHU21623XXSP,2013-01-10 15:49:00,
2013-01-10 10:54:00,49.3,36.0,0.00,North,0,0.0,0.0,60,0.00,,,0.00,WUHU21623XXSP,2013-01-10 15:54:00,
2013-01-10 10:59:00,49.5,36.2,0.00,North,0,0.0,0.0,60,0.00,,,0.00,WUHU21623XXSP,2013-01-10 15:59:00,
2013-01-10 11:04:00,49.6,36.4,0.00,North,0,0.0,0.0,60,0.00,,,0.00,WUHU21623XXSP,2013-01-10 16:04:00,
2013-01-10 11:09:00,49.6,36.4,0.00,North,0,0.0,0.0,60,0.00,,,0.00,WUHU21623XXSP,2013-01-10 16:09:00,
2013-01-10 11:14:00,49.8,36.0,0.00,North,0,0.0,0.0,59,0.00,,,0.00,WUHU21623XXSP,2013-01-10 16:14:00,
2013-01-10 11:19:00,49.8,35.6,0.00,North,0,0.0,0.0,58,0.00,,,0.00,WUHU21623XXSP,2013-01-10 16:19:00,
2013-01-10 11:24:00,49.8,35.6,0.00,North,0,0.0,0.0,58,0.00,,,0.00,WUHU21623XXSP,2013-01-10 16:24:00,
2013-01-10 11:29:00,49.8,35.6,0.00,North,0,0.0,0.0,58,0.00,,,0.00,WUHU21623XXSP,2013-01-10 16:29:00,
2013-01-10 11:34:00,50.2,35.9,0.00,North,0,0.0,0.0,58,0.00,,,0.00,WUHU21623XXSP,2013-01-10 16:34:00,
2013-01-10 11:39:00,50.4,35.7,0.00,North,0,0.0,0.0,57,0.00,,,0.00,WUHU21623XXSP,2013-01-10 16:39:00,
2013-01-10 11:44:00,50.5,35.8,0.00,North,0,0.0,0.0,57,0.00,,,0.00,WUHU21623XXSP,2013-01-10 16:44:00,
2013-01-10 11:49:00,50.7,35.1,0.00,North,0,0.0,0.0,55,0.00,,,0.00,WUHU21623XXSP,2013-01-10 16:49:00,
2013-01-10 11:54:00,51.3,35.6,0.00,North,0,0.0,0.0,55,0.00,,,0.00,WUHU21623XXSP,2013-01-10 16:54:00,
2013-01-10 11:59:00,51.6,35.9,0.00,North,0,0.0,0.0,55,0.00,,,0.00,WUHU21623XXSP,2013-01-10 16:59:00,
2013-01-10 12:04:00,52.2,35.9,0.00,North,0,0.0,0.0,54,0.00,,,0.00,WUHU21623XXSP,2013-01-10 17:04:00,
2013-01-10 12:09:00,52.9,35.7,0.00,North,0,0.0,0.0,52,0.00,,,0.00,WUHU21623XXSP,2013-01-10 17:09:00,
2013-01-10 12:14:00,53.2,36.0,0.00,North,0,0.0,0.0,52,0.00,,,0.00,WUHU21623XXSP,2013-01-10 17:14:00,
2013-01-10 12:19:00,53.8,36.0,0.00,North,0,0.0,0.0,51,0.00,,,0.00,WUHU21623XXSP,2013-01-10 17:19:00,
2013-01-10 12:24:00,54.1,36.4,0.00,North,0,0.0,0.0,51,0.00,,,0.00,WUHU21623XXSP,2013-01-10 17:24:00,
2013-01-10 12:29:00,54.3,35.5,0.00,North,0,0.0,0.0,49,0.00,,,0.00,WUHU21623XXSP,2013-01-10 17:29:00,
2013-01-10 12:34:00,54.7,35.7,0.00,North,0,0.0,0.0,49,0.00,,,0.00,WUHU21623XXSP,2013-01-10 17:34:00,
2013-01-10 12:39:00,55.2,36.3,0.00,North,0,0.0,0.0,49,0.00,,,0.00,WUHU21623XXSP,2013-01-10 17:39:00,
2013-01-10 12:44:00,55.8,37.4,0.00,North,0,0.0,0.0,50,0.00,,,0.00,WUHU21623XXSP,2013-01-10 17:44:00,
2013-01-10 12:49:00,56.3,36.8,0.00,North,0,0.0,0.0,48,0.00,,,0.00,WUHU21623XXSP,2013-01-10 17:49:00,
2013-01-10 12:54:00,56.5,37.0,0.00,North,0,0.0,0.0,48,0.00,,,0.00,WUHU21623XXSP,2013-01-10 17:54:00,
2013-01-10 12:59:00,56.8,36.8,0.00,North,0,0.0,0.0,47,0.00,,,0.00,WUHU21623XXSP,2013-01-10 17:59:00,
2013-01-10 13:04:00,57.0,36.9,0.00,North,0,0.0,0.0,47,0.00,,,0.00,WUHU21623XXSP,2013-01-10 18:04:00,
2013-01-10 13:09:00,57.0,36.4,0.00,North,0,0.0,0.0,46,0.00,,,0.00,WUHU21623XXSP,2013-01-10 18:09:00,
2013-01-10 13:14:00,57.4,37.3,0.00,North,0,0.0,0.0,47,0.00,,,0.00,WUHU21623XXSP,2013-01-10 18:14:00,
2013-01-10 13:19:00,57.9,37.6,0.00,North,0,0.0,0.0,47,0.00,,,0.00,WUHU21623XXSP,2013-01-10 18:19:00,
2013-01-10 13:24:00,58.8,38.0,0.00,North,0,0.0,0.0,46,0.00,,,0.00,WUHU21623XXSP,2013-01-10 18:24:00,
2013-01-10 13:29:00,59.0,37.6,0.00,North,0,0.0,0.0,45,0.00,,,0.00,WUHU21623XXSP,2013-01-10 18:29:00,
2013-01-10 13:34:00,59.5,38.1,0.00,North,0,0.0,0.0,45,0.00,,,0.00,WUHU21623XXSP,2013-01-10 18:34:00,
2013-01-10 13:39:00,59.9,37.2,0.00,North,0,0.0,0.0,43,0.00,,,0.00,WUHU21623XXSP,2013-01-10 18:39:00,
2013-01-10 13:44:00,60.1,38.0,0.00,North,0,0.0,0.0,44,0.00,,,0.00,WUHU21623XXSP,2013-01-10 18:44:00,
2013-01-10 13:49:00,60.3,38.1,0.00,North,0,0.0,0.0,44,0.00,,,0.00,WUHU21623XXSP,2013-01-10 18:49:00,
2013-01-10 13:54:00,60.1,37.4,0.00,North,0,0.0,0.0,43,0.00,,,0.00,WUHU21623XXSP,2013-01-10 18:54:00,
2013-01-10 13:59:00,60.4,37.1,0.00,North,0,0.0,0.0,42,0.00,,,0.00,WUHU21623XXSP,2013-01-10 18:59:00,
2013-01-10 14:04:00,60.4,37.7,0.00,North,0,0.0,0.0,43,0.00,,,0.00,WUHU21623XXSP,2013-01-10 19:04:00,
2013-01-10 14:09:00,60.6,37.3,0.00,North,0,0.0,0.0,42,0.00,,,0.00,WUHU21623XXSP,2013-01-10 19:09:00,
2013-01-10 14:14:00,60.8,36.9,0.00,North,0,0.0,0.0,41,0.00,,,0.00,WUHU21623XXSP,2013-01-10 19:14:00,
2013-01-10 14:19:00,61.0,37.1,0.00,North,0,0.0,0.0,41,0.00,,,0.00,WUHU21623XXSP,2013-01-10 19:19:00,
2013-01-10 14:24:00,61.0,37.1,0.00,North,0,0.0,0.0,41,0.00,,,0.00,WUHU21623XXSP,2013-01-10 19:24:00,
2013-01-10 14:29:00,61.2,37.2,0.00,North,0,0.0,0.0,41,0.00,,,0.00,WUHU21623XXSP,2013-01-10 19:29:00,
2013-01-10 14:34:00,61.2,36.6,0.00,North,0,0.0,0.0,40,0.00,,,0.00,WUHU21623XXSP,2013-01-10 19:34:00,
2013-01-10 14:39:00,60.8,36.3,0.00,North,0,0.0,0.0,40,0.00,,,0.00,WUHU21623XXSP,2013-01-10 19:39:00,
2013-01-10 14:44:00,61.0,36.5,0.00,North,0,0.0,0.0,40,0.00,,,0.00,WUHU21623XXSP,2013-01-10 19:44:00,
2013-01-10 14:49:00,60.6,36.5,0.00,North,0,0.0,0.0,41,0.00,,,0.00,WUHU21623XXSP,2013-01-10 19:49:00,
2013-01-10 14:54:00,60.6,36.2,0.00,North,0,0.0,0.0,40,0.00,,,0.00,WUHU21623XXSP,2013-01-10 19:54:00,
2013-01-10 14:59:00,60.1,35.7,0.00,North,0,0.0,0.0,40,0.00,,,0.00,WUHU21623XXSP,2013-01-10 19:59:00,
2013-01-10 15:04:00,59.5,35.3,0.00,North,0,0.0,0.0,41,0.00,,,0.00,WUHU21623XXSP,2013-01-10 20:04:00,
2013-01-10 15:09:00,59.0,35.3,0.00,North,0,0.0,0.0,41,0.00,,,0.00,WUHU21623XXSP,2013-01-10 20:09:00,
2013-01-10 15:14:00,58.8,35.1,0.00,North,0,0.0,0.0,41,0.00,,,0.00,WUHU21623XXSP,2013-01-10 20:14:00,
2013-01-10 15:19:00,58.8,35.7,0.00,North,0,0.0,0.0,42,0.00,,,0.00,WUHU21623XXSP,2013-01-10 20:19:00,
2013-01-10 15:24:00,58.6,35.5,0.00,North,0,0.0,0.0,42,0.00,,,0.00,WUHU21623XXSP,2013-01-10 20:24:00,
2013-01-10 15:29:00,58.6,35.5,0.00,North,0,0.0,0.0,42,0.00,,,0.00,WUHU21623XXSP,2013-01-10 20:29:00,
2013-01-10 15:34:00,58.1,35.6,0.00,North,0,0.0,0.0,43,0.00,,,0.00,WUHU21623XXSP,2013-01-10 20:34:00,
2013-01-10 15:39:00,57.9,35.5,0.00,North,0,0.0,0.0,43,0.00,,,0.00,WUHU21623XXSP,2013-01-10 20:39:00,
2013-01-10 15:44:00,57.9,35.5,0.00,North,0,0.0,0.0,43,0.00,,,0.00,WUHU21623XXSP,2013-01-10 20:44:00,
2013-01-10 15:49:00,57.7,35.3,0.00,North,0,0.0,0.0,43,0.00,,,0.00,WUHU21623XXSP,2013-01-10 20:49:00,
2013-01-10 15:54:00,57.7,35.3,0.00,North,0,0.0,0.0,43,0.00,,,0.00,WUHU21623XXSP,2013-01-10 20:54:00,
2013-01-10 15:59:00,57.4,35.1,0.00,North,0,0.0,0.0,44,0.00,,,0.00,WUHU21623XXSP,2013-01-10 20:59:00,
2013-01-10 16:04:00,57.2,35.0,0.00,North,0,0.0,0.0,43,0.00,,,0.00,WUHU21623XXSP,2013-01-10 21:04:00,
2013-01-10 16:10:00,57.0,35.2,0.00,North,0,0.0,0.0,44,0.00,,,0.00,WUHU21623XXSP,2013-01-10 21:10:00,
2013-01-10 16:15:00,57.0,35.2,0.00,North,0,0.0,0.0,44,0.00,,,0.00,WUHU21623XXSP,2013-01-10 21:15:00,
2013-01-10 16:20:00,56.7,35.4,0.00,North,0,0.0,0.0,45,0.00,,,0.00,WUHU21623XXSP,2013-01-10 21:20:00,
2013-01-10 16:25:00,56.5,35.3,0.00,North,0,0.0,0.0,45,0.00,,,0.00,WUHU21623XXSP,2013-01-10 21:25:00,
2013-01-10 16:30:00,56.3,35.7,0.00,North,0,0.0,0.0,46,0.00,,,0.00,WUHU21623XXSP,2013-01-10 21:30:00,
2013-01-10 16:35:00,56.1,35.5,0.00,North,0,0.0,0.0,46,0.00,,,0.00,WUHU21623XXSP,2013-01-10 21:35:00,
2013-01-10 16:40:00,55.9,35.9,0.00,North,0,0.0,0.0,47,0.00,,,0.00,WUHU21623XXSP,2013-01-10 21:40:00,
2013-01-10 16:45:00,55.8,35.7,0.00,North,0,0.0,0.0,47,0.00,,,0.00,WUHU21623XXSP,2013-01-10 21:45:00,
2013-01-10 16:50:00,55.6,35.5,0.00,North,0,0.0,0.0,47,0.00,,,0.00,WUHU21623XXSP,2013-01-10 21:50:00,
2013-01-10 16:55:00,55.2,35.4,0.00,North,0,0.0,0.0,48,0.00,,,0.00,WUHU21623XXSP,2013-01-10 21:55:00,
2013-01-10 17:00:00,55.0,35.6,0.00,North,0,0.0,0.0,48,0.00,,,0.00,WUHU21623XXSP,2013-01-10 22:00:00,
2013-01-10 17:05:00,54.9,36.0,0.00,North,0,0.0,0.0,49,0.00,,,0.00,WUHU21623XXSP,2013-01-10 22:05:00,
2013-01-10 17:10:00,54.5,35.8,0.00,North,0,0.0,0.0,49,0.00,,,0.00,WUHU21623XXSP,2013-01-10 22:10:00,
2013-01-10 17:15:00,54.3,35.5,0.00,North,0,0.0,0.0,49,0.00,,,0.00,WUHU21623XXSP,2013-01-10 22:15:00,
2013-01-10 17:20:00,54.1,35.3,0.00,North,0,0.0,0.0,49,0.00,,,0.00,WUHU21623XXSP,2013-01-10 22:20:00,
2013-01-10 17:25:00,54.0,35.2,0.00,North,0,0.0,0.0,49,0.00,,,0.00,WUHU21623XXSP,2013-01-10 22:25:00,
2013-01-10 17:30:00,53.4,35.3,0.00,North,0,0.0,0.0,50,0.00,,,0.00,WUHU21623XXSP,2013-01-10 22:30:00,
2013-01-10 17:35:00,53.2,35.1,0.00,North,0,0.0,0.0,50,0.00,,,0.00,WUHU21623XXSP,2013-01-10 22:35:00,
2013-01-10 17:40:00,52.9,35.1,0.00,North,0,0.0,0.0,50,0.00,,,0.00,WUHU21623XXSP,2013-01-10 22:40:00,
2013-01-10 17:45:00,52.7,35.1,0.00,North,0,0.0,0.0,51,0.00,,,0.00,WUHU21623XXSP,2013-01-10 22:45:00,
2013-01-10 17:50:00,52.5,34.9,0.00,North,0,0.0,0.0,51,0.00,,,0.00,WUHU21623XXSP,2013-01-10 22:50:00,
2013-01-10 17:55:00,52.3,34.7,0.00,North,0,0.0,0.0,51,0.00,,,0.00,WUHU21623XXSP,2013-01-10 22:55:00,
2013-01-10 18:00:00,52.3,34.7,0.00,North,0,0.0,0.0,51,0.00,,,0.00,WUHU21623XXSP,2013-01-10 23:00:00,
2013-01-10 18:05:00,51.8,34.3,0.00,North,0,0.0,0.0,51,0.00,,,0.00,WUHU21623XXSP,2013-01-10 23:05:00,
2013-01-10 18:10:00,51.8,34.3,0.00,North,0,0.0,0.0,52,0.00,,,0.00,WUHU21623XXSP,2013-01-10 23:10:00,
2013-01-10 18:15:00,51.8,34.7,0.00,North,0,0.0,0.0,52,0.00,,,0.00,WUHU21623XXSP,2013-01-10 23:15:00,
2013-01-10 18:20:00,51.1,34.7,0.00,North,0,0.0,0.0,52,0.00,,,0.00,WUHU21623XXSP,2013-01-10 23:20:00,
2013-01-10 18:25:00,50.9,33.9,0.00,North,0,0.0,0.0,52,0.00,,,0.00,WUHU21623XXSP,2013-01-10 23:25:00,
2013-01-10 18:30:00,50.7,34.2,0.00,North,0,0.0,0.0,53,0.00,,,0.00,WUHU21623XXSP,2013-01-10 23:30:00,
2013-01-10 18:35:00,50.5,34.2,0.00,North,0,0.0,0.0,53,0.00,,,0.00,WUHU21623XXSP,2013-01-10 23:35:00,
2013-01-10 18:40:00,50.5,34.0,0.00,North,0,0.0,0.0,53,0.00,,,0.00,WUHU21623XXSP,2013-01-10 23:40:00,
2013-01-10 18:45:00,50.2,33.9,0.00,North,0,0.0,0.0,53,0.00,,,0.00,WUHU21623XXSP,2013-01-10 23:45:00,
2013-01-10 18:50:00,50.2,33.7,0.00,North,0,0.0,0.0,53,0.00,,,0.00,WUHU21623XXSP,2013-01-10 23:50:00,
2013-01-10 18:55:00,49.8,33.4,0.00,North,0,0.0,0.0,53,0.00,,,0.00,WUHU21623XXSP,2013-01-10 23:55:00,
2013-01-10 19:00:00,49.8,33.8,0.00,North,0,0.0,0.0,54,0.00,,,0.00,WUHU21623XXSP,2013-01-11 00:00:00,
2013-01-10 19:05:00,49.6,33.6,0.00,North,0,0.0,0.0,54,0.00,,,0.00,WUHU21623XXSP,2013-01-11 00:05:00,
2013-01-10 19:10:00,49.6,33.6,0.00,North,0,0.0,0.0,54,0.00,,,0.00,WUHU21623XXSP,2013-01-11 00:10:00,
2013-01-10 19:15:00,49.3,33.3,0.00,North,0,0.0,0.0,54,0.00,,,0.00,WUHU21623XXSP,2013-01-11 00:15:00,
2013-01-10 19:20:00,49.1,33.6,0.00,North,0,0.0,0.0,55,0.00,,,0.00,WUHU21623XXSP,2013-01-11 00:20:00,
2013-01-10 19:25:00,49.1,33.6,0.00,North,0,0.0,0.0,55,0.00,,,0.00,WUHU21623XXSP,2013-01-11 00:25:00,
2013-01-10 19:30:00,48.9,33.4,0.00,North,0,0.0,0.0,55,0.00,,,0.00,WUHU21623XXSP,2013-01-11 00:30:00,
2013-01-10 19:35:00,48.7,33.4,0.00,North,0,0.0,0.0,55,0.00,,,0.00,WUHU21623XXSP,2013-01-11 00:35:00,
2013-01-10 19:40:00,48.7,33.7,0.00,North,0,0.0,0.0,56,0.00,,,0.00,WUHU21623XXSP,2013-01-11 00:40:00,
2013-01-10 19:45:00,48.4,33.4,0.00,North,0,0.0,0.0,56,0.00,,,0.00,WUHU21623XXSP,2013-01-11 00:45:00,
2013-01-10 19:50:00,48.4,33.4,0.00,North,0,0.0,0.0,56,0.00,,,0.00,WUHU21623XXSP,2013-01-11 00:50:00,
2013-01-10 19:55:00,48.0,33.2,0.00,North,0,0.0,0.0,56,0.00,,,0.00,WUHU21623XXSP,2013-01-11 00:55:00,
2013-01-10 20:00:00,47.8,33.3,0.00,North,0,0.0,0.0,57,0.00,,,0.00,WUHU21623XXSP,2013-01-11 01:00:00,
2013-01-10 20:05:00,47.8,33.3,0.00,North,0,0.0,0.0,57,0.00,,,0.00,WUHU21623XXSP,2013-01-11 01:05:00,
2013-01-10 20:10:00,47.5,33.0,0.00,North,0,0.0,0.0,57,0.00,,,0.00,WUHU21623XXSP,2013-01-11 01:10:00,
2013-01-10 20:15:00,47.3,32.8,0.00,North,0,0.0,0.0,57,0.00,,,0.00,WUHU21623XXSP,2013-01-11 01:15:00,
2013-01-10 20:20:00,47.1,32.6,0.00,North,0,0.0,0.0,57,0.00,,,0.00,WUHU21623XXSP,2013-01-11 01:20:00,
2013-01-10 20:25:00,46.8,32.9,0.00,North,0,0.0,0.0,58,0.00,,,0.00,WUHU21623XXSP,2013-01-11 01:25:00,
2013-01-10 20:30:00,46.6,32.7,0.00,North,0,0.0,0.0,58,0.00,,,0.00,WUHU21623XXSP,2013-01-11 01:30:00,
2013-01-10 20:35:00,46.6,32.5,0.00,North,0,0.0,0.0,58,0.00,,,0.00,WUHU21623XXSP,2013-01-11 01:35:00,
2013-01-10 20:40:00,46.2,32.2,0.00,North,0,0.0,0.0,58,0.00,,,0.00,WUHU21623XXSP,2013-01-11 01:40:00,
2013-01-10 20:45:00,46.2,32.6,0.00,North,0,0.0,0.0,59,0.00,,,0.00,WUHU21623XXSP,2013-01-11 01:45:00,
2013-01-10 20:50:00,46.0,32.5,0.00,North,0,0.0,0.0,59,0.00,,,0.00,WUHU21623XXSP,2013-01-11 01:50:00,
2013-01-10 20:55:00,46.0,32.5,0.00,North,0,0.0,0.0,59,0.00,,,0.00,WUHU21623XXSP,2013-01-11 01:55:00,
2013-01-10 21:00:00,45.7,32.3,0.00,North,0,0.0,0.0,59,0.00,,,0.00,WUHU21623XXSP,2013-01-11 02:00:00,
2013-01-10 21:05:00,45.7,32.2,0.00,North,0,0.0,0.0,59,0.00,,,0.00,WUHU21623XXSP,2013-01-11 02:05:00,
2013-01-10 21:10:00,45.3,32.3,0.00,North,0,0.0,0.0,60,0.00,,,0.00,WUHU21623XXSP,2013-01-11 02:10:00,
2013-01-10 21:15:00,45.3,32.3,0.00,North,0,0.0,0.0,60,0.00,,,0.00,WUHU21623XXSP,2013-01-11 02:15:00,
2013-01-10 21:20:00,45.1,32.1,0.00,North,0,0.0,0.0,60,0.00,,,0.00,WUHU21623XXSP,2013-01-11 02:20:00,
2013-01-10 21:25:00,45.0,32.0,0.00,North,0,0.0,0.0,60,0.00,,,0.00,WUHU21623XXSP,2013-01-11 02:25:00,
2013-01-10 21:30:00,45.0,32.0,0.00,North,0,0.0,0.0,60,0.00,,,0.00,WUHU21623XXSP,2013-01-11 02:30:00,
2013-01-10 21:35:00,44.8,31.8,0.00,North,0,0.0,0.0,60,0.00,,,0.00,WUHU21623XXSP,2013-01-11 02:35:00,
2013-01-10 21:40:00,44.4,31.5,0.00,North,0,0.0,0.0,60,0.00,,,0.00,WUHU21623XXSP,2013-01-11 02:40:00,
2013-01-10 21:45:00,44.4,31.5,0.00,North,0,0.0,0.0,61,0.00,,,0.00,WUHU21623XXSP,2013-01-11 02:45:00,
2013-01-10 21:50:00,44.2,31.7,0.00,North,0,0.0,0.0,61,0.00,,,0.00,WUHU21623XXSP,2013-01-11 02:50:00,
2013-01-10 21:55:00,43.9,31.3,0.00,North,0,0.0,0.0,61,0.00,,,0.00,WUHU21623XXSP,2013-01-11 02:55:00,
2013-01-10 22:00:00,43.7,31.1,0.00,North,0,0.0,0.0,61,0.00,,,0.00,WUHU21623XXSP,2013-01-11 03:00:00,
2013-01-10 22:05:00,43.5,30.9,0.00,North,0,0.0,0.0,61,0.00,,,0.00,WUHU21623XXSP,2013-01-11 03:05:00,
2013-01-10 22:10:00,43.3,30.8,0.00,North,0,0.0,0.0,61,0.00,,,0.00,WUHU21623XXSP,2013-01-11 03:10:00,
2013-01-10 22:15:00,43.2,31.2,0.00,North,0,0.0,0.0,62,0.00,,,0.00,WUHU21623XXSP,2013-01-11 03:15:00,
2013-01-10 22:20:00,43.2,31.0,0.00,North,0,0.0,0.0,62,0.00,,,0.00,WUHU21623XXSP,2013-01-11 03:20:00,
2013-01-10 22:25:00,43.0,30.8,0.00,North,0,0.0,0.0,62,0.00,,,0.00,WUHU21623XXSP,2013-01-11 03:25:00,
2013-01-10 22:30:00,42.6,30.8,0.00,North,0,0.0,0.0,62,0.00,,,0.00,WUHU21623XXSP,2013-01-11 03:30:00,
2013-01-10 22:35:00,42.6,30.5,0.00,North,0,0.0,0.0,62,0.00,,,0.00,WUHU21623XXSP,2013-01-11 03:35:00,
2013-01-10 22:40:00,42.4,30.3,0.00,North,0,0.0,0.0,62,0.00,,,0.00,WUHU21623XXSP,2013-01-11 03:40:00,
2013-01-10 22:45:00,42.4,30.3,0.00,North,0,0.0,0.0,62,0.00,,,0.00,WUHU21623XXSP,2013-01-11 03:45:00,
2013-01-10 22:50:00,42.1,30.0,0.00,North,0,0.0,0.0,62,0.00,,,0.00,WUHU21623XXSP,2013-01-11 03:50:00,
2013-01-10 22:55:00,42.1,30.0,0.00,North,0,0.0,0.0,62,0.00,,,0.00,WUHU21623XXSP,2013-01-11 03:55:00,
2013-01-10 23:01:00,41.9,30.2,0.00,North,0,0.0,0.0,63,0.00,,,0.00,WUHU21623XXSP,2013-01-11 04:01:00,
2013-01-10 23:06:00,41.7,30.0,0.00,North,0,0.0,0.0,63,0.00,,,0.00,WUHU21623XXSP,2013-01-11 04:06:00,
2013-01-10 23:11:00,41.5,29.8,0.00,North,0,0.0,0.0,63,0.00,,,0.00,WUHU21623XXSP,2013-01-11 04:11:00,
2013-01-10 23:16:00,41.4,29.7,0.00,North,0,0.0,0.0,63,0.00,,,0.00,WUHU21623XXSP,2013-01-11 04:16:00,
2013-01-10 23:21:00,41.2,29.9,0.00,North,0,0.0,0.0,64,0.00,,,0.00,WUHU21623XXSP,2013-01-11 04:21:00,
2013-01-10 23:26:00,41.0,29.7,0.00,North,0,0.0,0.0,64,0.00,,,0.00,WUHU21623XXSP,2013-01-11 04:26:00,
2013-01-10 23:31:00,40.8,29.6,0.00,North,0,0.0,0.0,64,0.00,,,0.00,WUHU21623XXSP,2013-01-11 04:31:00,
2013-01-10 23:36:00,40.8,29.6,0.00,North,0,0.0,0.0,64,0.00,,,0.00,WUHU21623XXSP,2013-01-11 04:36:00,
2013-01-10 23:41:00,40.6,29.8,0.00,North,0,0.0,0.0,65,0.00,,,0.00,WUHU21623XXSP,2013-01-11 04:41:00,
2013-01-10 23:46:00,40.5,29.2,0.00,North,0,0.0,0.0,64,0.00,,,0.00,WUHU21623XXSP,2013-01-11 04:46:00,
2013-01-10 23:51:00,40.3,29.4,0.00,North,0,0.0,0.0,65,0.00,,,0.00,WUHU21623XXSP,2013-01-11 04:51:00,
2013-01-10 23:56:00,40.1,29.2,0.00,North,0,0.0,0.0,65,0.00,,,0.00,WUHU21623XXSP,2013-01-11 04:56:00,